createdAt,value
2023-02-07T00:00:00.725Z,225.0
2023-02-07T00:05:00.719Z,225.0
2023-02-07T00:10:00.751Z,225.0
2023-02-07T00:15:00.714Z,239.3
2023-02-07T00:20:01.035Z,267.4
2023-02-07T00:25:00.697Z,292.3
2023-02-07T00:30:00.694Z,292.5
2023-02-07T00:35:00.673Z,292.5
2023-02-07T00:40:00.696Z,292.5
2023-02-07T00:45:00.675Z,292.5
2023-02-07T00:50:00.712Z,292.5
2023-02-07T00:55:00.684Z,292.1
2023-02-07T01:00:00.726Z,270.2
2023-02-07T01:05:01.011Z,270.0
2023-02-07T01:10:00.704Z,270.0
2023-02-07T01:15:00.802Z,270.0
2023-02-07T01:20:00.756Z,270.0
2023-02-07T01:25:00.678Z,270.0
2023-02-07T01:30:00.777Z,270.0
2023-02-07T01:35:00.807Z,270.0
2023-02-07T01:40:00.715Z,270.0
2023-02-07T01:45:00.712Z,270.0
2023-02-07T01:50:00.730Z,270.0
2023-02-07T01:55:00.696Z,270.0
2023-02-07T02:00:00.774Z,270.0
2023-02-07T02:05:00.723Z,270.0
2023-02-07T02:10:00.725Z,270.0
2023-02-07T02:15:00.752Z,270.0
2023-02-07T02:20:00.716Z,270.0
2023-02-07T02:25:00.746Z,270.0
2023-02-07T02:30:00.727Z,292.3
2023-02-07T02:35:00.685Z,292.5
2023-02-07T02:40:00.746Z,321.2
2023-02-07T02:45:00.711Z,337.4
2023-02-07T02:50:00.851Z,337.5
2023-02-07T02:55:00.879Z,337.5
2023-02-07T03:00:00.831Z,225.9
2023-02-07T03:05:00.977Z,202.9
2023-02-07T03:10:00.751Z,202.5
2023-02-07T03:15:00.670Z,202.5
2023-02-07T03:20:00.782Z,202.5
2023-02-07T03:25:00.750Z,202.5
2023-02-07T03:30:00.754Z,202.5
2023-02-07T03:35:00.682Z,202.5
2023-02-07T03:40:00.712Z,16.3
2023-02-07T03:45:00.702Z,22.5
2023-02-07T03:50:00.726Z,44.5
2023-02-07T03:55:00.759Z,67.1
2023-02-07T04:00:00.739Z,45.3
2023-02-07T04:05:00.697Z,45.0
2023-02-07T04:10:00.708Z,66.2
2023-02-07T04:15:00.672Z,67.5
2023-02-07T04:20:00.743Z,68.5
2023-02-07T04:25:00.705Z,67.5
2023-02-07T04:30:00.709Z,67.5
2023-02-07T04:35:00.716Z,67.5
2023-02-07T04:40:00.679Z,67.5
2023-02-07T04:45:00.666Z,67.5
2023-02-07T04:50:00.768Z,30.1
2023-02-07T04:55:00.737Z,22.6
2023-02-07T05:00:00.697Z,1.1
2023-02-07T05:05:00.649Z,0.0
2023-02-07T05:10:00.774Z,0.0
2023-02-07T05:15:00.727Z,0.0
2023-02-07T05:20:00.736Z,0.0
2023-02-07T05:25:00.761Z,0.0
2023-02-07T05:30:00.751Z,0.0
2023-02-07T05:35:01.002Z,0.0
2023-02-07T05:40:00.668Z,0.0
2023-02-07T05:45:00.711Z,0.0
2023-02-07T05:50:00.723Z,0.0
2023-02-07T05:55:00.724Z,22.2
2023-02-07T06:00:00.703Z,0.3
2023-02-07T06:05:00.673Z,0.0
2023-02-07T06:10:00.650Z,0.0
2023-02-07T06:15:00.701Z,0.0
2023-02-07T06:20:00.738Z,0.0
2023-02-07T06:25:00.681Z,0.0
2023-02-07T06:30:00.698Z,0.0
2023-02-07T06:35:00.716Z,0.0
2023-02-07T06:40:00.815Z,0.0
2023-02-07T06:45:00.673Z,4.0
2023-02-07T06:50:00.686Z,171.2
2023-02-07T06:55:00.695Z,180.0
2023-02-07T07:00:00.719Z,180.0
2023-02-07T07:05:00.720Z,201.3
2023-02-07T07:10:01.050Z,202.5
2023-02-07T07:15:00.653Z,202.5
2023-02-07T07:20:00.702Z,202.5
2023-02-07T07:25:00.735Z,202.5
2023-02-07T07:30:00.688Z,202.5
2023-02-07T07:35:00.810Z,202.5
2023-02-07T07:40:00.833Z,202.5
2023-02-07T07:45:00.762Z,202.5
2023-02-07T07:50:00.728Z,184.7
2023-02-07T07:55:00.714Z,180.0
2023-02-07T08:00:00.687Z,165.5
2023-02-07T08:05:00.759Z,181.8
2023-02-07T08:10:00.664Z,160.1
2023-02-07T08:15:00.715Z,159.3
2023-02-07T08:20:00.749Z,163.3
2023-02-07T08:25:00.693Z,157.6
2023-02-07T08:30:00.738Z,173.1
2023-02-07T08:35:00.776Z,176.2
2023-02-07T08:40:00.779Z,199.3
2023-02-07T08:45:00.744Z,178.4
2023-02-07T08:50:00.859Z,158.1
2023-02-07T08:55:00.773Z,197.7
2023-02-07T09:00:00.704Z,183.1
2023-02-07T09:05:00.712Z,180.0
2023-02-07T09:10:00.723Z,180.0
2023-02-07T09:15:00.718Z,187.9
2023-02-07T09:20:00.857Z,203.6
2023-02-07T09:25:00.724Z,231.3
2023-02-07T09:30:00.709Z,249.2
2023-02-07T09:35:00.717Z,214.2
2023-02-07T09:40:00.770Z,197.5
2023-02-07T09:45:02.307Z,49.0
2023-02-07T09:50:00.883Z,34.2
2023-02-07T09:55:00.808Z,53.1
2023-02-07T10:00:00.737Z,12.7
2023-02-07T10:05:00.898Z,45.5
2023-02-07T10:10:00.721Z,49.0
2023-02-07T10:15:00.770Z,45.4
2023-02-07T10:20:00.895Z,47.1
2023-02-07T10:25:00.825Z,45.0
2023-02-07T10:30:00.731Z,147.7
2023-02-07T10:35:00.917Z,197.1
2023-02-07T10:40:00.649Z,153.6
2023-02-07T10:45:00.713Z,200.1
2023-02-07T10:50:00.822Z,199.2
2023-02-07T10:55:00.694Z,200.5
2023-02-07T11:00:01.080Z,208.3
2023-02-07T11:05:00.857Z,237.0
2023-02-07T11:10:00.695Z,249.6
2023-02-07T11:15:00.744Z,162.4
2023-02-07T11:20:00.774Z,280.5
2023-02-07T11:25:00.722Z,293.1
2023-02-07T11:30:00.751Z,189.5
2023-02-07T11:35:00.749Z,146.5
2023-02-07T11:40:01.279Z,196.8
2023-02-07T11:45:00.723Z,211.2
2023-02-07T11:50:00.973Z,254.2
2023-02-07T11:55:00.741Z,258.4
2023-02-07T12:00:00.836Z,254.4
2023-02-07T12:05:01.080Z,289.7
2023-02-07T12:10:00.722Z,279.7
2023-02-07T12:15:00.728Z,212.3
2023-02-07T12:20:03.436Z,314.1
2023-02-07T12:25:00.640Z,261.6
2023-02-07T12:30:00.730Z,197.8
2023-02-07T12:35:00.804Z,293.9
2023-02-07T12:40:00.705Z,257.4
2023-02-07T12:45:00.644Z,293.2
2023-02-07T12:50:00.925Z,245.0
2023-02-07T12:55:00.692Z,285.2
2023-02-07T13:00:00.735Z,305.7
2023-02-07T13:10:00.745Z,190.4
2023-02-07T13:15:00.726Z,326.3
2023-02-07T13:20:00.763Z,317.1
2023-02-07T13:25:00.725Z,351.9
2023-02-07T13:30:00.677Z,259.5
2023-02-07T13:35:00.704Z,237.4
2023-02-07T13:40:00.695Z,305.6
2023-02-07T13:45:00.708Z,316.2
2023-02-07T13:50:00.847Z,268.3
2023-02-07T13:55:00.773Z,341.4
2023-02-07T14:00:00.722Z,238.2
2023-02-07T14:05:00.935Z,264.1
2023-02-07T14:10:00.781Z,247.2
2023-02-07T14:15:03.801Z,247.1
2023-02-07T14:20:00.751Z,212.1
2023-02-07T14:25:00.689Z,333.2
2023-02-07T14:30:00.850Z,329.3
2023-02-07T14:35:00.844Z,221.2
2023-02-07T14:40:01.668Z,233.3
2023-02-07T14:45:00.684Z,247.1
2023-02-07T14:50:00.776Z,231.1
2023-02-07T14:55:00.716Z,256.8
2023-02-07T15:00:00.738Z,227.6
2023-02-07T15:05:00.676Z,228.5
2023-02-07T15:10:00.719Z,259.2
2023-02-07T15:15:00.776Z,243.5
2023-02-07T15:20:00.684Z,267.3
2023-02-07T15:25:00.704Z,248.5
2023-02-07T15:30:00.946Z,226.7
2023-02-07T15:35:02.683Z,225.0
2023-02-07T15:40:00.815Z,262.8
2023-02-07T15:45:00.831Z,247.6
2023-02-07T15:50:00.791Z,247.5
2023-02-07T15:55:00.713Z,247.5
2023-02-07T16:00:00.852Z,247.5
2023-02-07T16:05:00.719Z,247.5
2023-02-07T16:10:02.690Z,247.5
2023-02-07T16:15:02.230Z,225.2
2023-02-07T16:20:00.800Z,225.0
2023-02-07T16:25:00.696Z,267.8
2023-02-07T16:30:00.884Z,259.7
2023-02-07T16:35:00.825Z,247.6
2023-02-07T16:40:00.774Z,227.3
2023-02-07T16:45:00.868Z,225.0
2023-02-07T16:50:00.720Z,206.5
2023-02-07T16:55:00.709Z,203.2
2023-02-07T17:00:00.899Z,224.9
2023-02-07T17:05:00.735Z,225.0
2023-02-07T17:10:00.684Z,225.0
2023-02-07T17:15:00.686Z,225.0
2023-02-07T17:20:02.681Z,225.0
2023-02-07T17:25:00.770Z,225.0
2023-02-07T17:30:00.784Z,203.4
2023-02-07T17:35:02.695Z,221.8
2023-02-07T17:40:00.718Z,225.0
2023-02-07T17:45:00.793Z,225.0
2023-02-07T17:50:00.774Z,225.0
2023-02-07T17:55:00.710Z,246.7
2023-02-07T18:00:00.961Z,266.5
2023-02-07T18:05:00.657Z,257.8
2023-02-07T18:10:00.795Z,239.7
2023-02-07T18:15:00.700Z,183.0
2023-02-07T18:20:00.773Z,166.9
2023-02-07T18:25:00.709Z,157.6
2023-02-07T18:30:00.715Z,157.5
2023-02-07T18:35:00.715Z,157.5
2023-02-07T18:40:00.981Z,198.8
2023-02-07T18:45:00.713Z,202.5
2023-02-07T18:50:01.151Z,269.3
2023-02-07T18:55:00.662Z,247.7
2023-02-07T19:00:01.304Z,247.5
2023-02-07T19:05:00.734Z,247.5
2023-02-07T19:10:00.718Z,247.5
2023-02-07T19:15:00.754Z,247.5
2023-02-07T19:20:00.740Z,227.3
2023-02-07T19:25:02.754Z,225.0
2023-02-07T19:30:00.718Z,234.2
2023-02-07T19:35:00.706Z,247.4
2023-02-07T19:40:00.750Z,253.0
2023-02-07T19:45:00.704Z,269.9
2023-02-07T19:50:00.768Z,270.0
2023-02-07T19:55:00.765Z,263.2
2023-02-07T20:00:00.794Z,203.9
2023-02-07T20:05:00.718Z,202.5
2023-02-07T20:10:00.716Z,202.5
2023-02-07T20:15:00.700Z,202.5
2023-02-07T20:20:00.948Z,202.5
2023-02-07T20:25:00.694Z,202.5
2023-02-07T20:30:00.714Z,202.5
2023-02-07T20:35:00.728Z,202.5
2023-02-07T20:40:00.794Z,202.5
2023-02-07T20:45:00.691Z,202.5
2023-02-07T20:50:00.698Z,202.5
2023-02-07T20:55:00.741Z,202.5
2023-02-07T21:00:00.736Z,202.5
2023-02-07T21:05:00.815Z,254.3
2023-02-07T21:10:01.334Z,269.9
2023-02-07T21:15:00.703Z,60.5
2023-02-07T21:20:00.734Z,67.5
2023-02-07T21:25:00.720Z,67.5
2023-02-07T21:30:00.702Z,67.5
2023-02-07T21:35:02.693Z,45.7
2023-02-07T21:40:00.726Z,28.1
2023-02-07T21:45:00.769Z,22.5
2023-02-07T21:50:00.693Z,26.1
2023-02-07T21:55:00.657Z,157.2
2023-02-07T22:00:00.737Z,157.5
2023-02-07T22:05:00.817Z,157.5
2023-02-07T22:10:00.712Z,157.5
2023-02-07T22:15:00.722Z,157.5
2023-02-07T22:20:00.691Z,157.5
2023-02-07T22:25:00.723Z,157.5
2023-02-07T22:30:03.371Z,157.5
2023-02-07T22:35:00.679Z,157.5
2023-02-07T22:40:00.732Z,157.5
2023-02-07T22:45:00.697Z,157.5
2023-02-07T22:50:00.763Z,157.5
2023-02-07T22:55:00.660Z,157.5
2023-02-07T23:00:00.728Z,157.5
2023-02-07T23:05:00.693Z,157.5
2023-02-07T23:10:00.719Z,157.5
2023-02-07T23:15:00.748Z,157.5
2023-02-07T23:20:00.714Z,157.5
2023-02-07T23:25:00.702Z,157.5
2023-02-07T23:30:00.715Z,157.5
2023-02-07T23:35:00.820Z,262.0
2023-02-07T23:40:00.764Z,270.0
2023-02-07T23:45:00.694Z,270.0
2023-02-07T23:50:00.699Z,248.2
2023-02-07T23:55:00.684Z,247.5
